• Join FlightAware (Why Join?)
  • Login
  • US Flag 
06:02PM EDT


 

Airport Tracker/Info


-or-


 

Live Flight TrackerFlight Track Log ✈ CTL78 ✈ 26-Apr-2013 ✈ KMBS - KYIP

Flight Track Log - Related Links

Times and Time Zones

All times are in EDT time to prevent confusion due to time zone crossing. See the CTL78 flight status page for this flight to view local times or setup timezone preferences in your user account.

Time Position Orientation Groundspeed Altitude Reporting Facility
EDT Latitude Longitude Course Direction KTS MPH feet Rate Location/Type
08:58PM 43.2770 -83.9692 160° South  Level Estimated
08:59PM 43.2393 -83.9363 148° Southeast  Level FlightAware Approximate
09:00PM 43.1965 -83.9187 163° South  Level Estimated
09:01PM 43.1549 -83.8962 159° South  Level FlightAware Approximate
09:02PM 43.1120 -83.8789 160° South  Level Estimated
09:03PM 43.0703 -83.8570 159° South  Level FlightAware Approximate
09:04PM 43.0285 -83.8351 159° South  Level FlightAware Approximate
09:05PM 42.9868 -83.8133 159° South  Level FlightAware Approximate
09:06PM 42.9450 -83.7915 159° South  Level FlightAware Approximate
09:06PM 42.9453 -83.7797 163° South 172 198 5,100  Level Cleveland Center
09:07PM 42.9033 -83.7697 159° South  Level FlightAware Approximate
09:07PM 42.9186 -83.7672 161° South 175 201 5,100  Level Cleveland Center
09:08PM 42.8615 -83.7480 159° South  Level FlightAware Approximate
09:08PM 42.8711 -83.7478 163° South 169 194 5,000  Level Cleveland Center
09:09PM 42.8183 -83.7328 160° South  Level Estimated
09:09PM 42.8256 -83.7342 168° South 165 190 5,100  Level Cleveland Center
09:10PM 42.7750 -83.7175 165° South  Level Estimated
09:10PM 42.7614 -83.7167 169° South 167 192 5,000  Level Cleveland Center
09:11PM 42.7321 -83.7002 163° South  Level FlightAware Approximate
09:11PM 42.7203 -83.7006 164° South 168 193 5,000  Level Cleveland Center
09:12PM 42.6789 -83.6842 164° South 167 192 5,000  Level Cleveland Center
09:13PM 42.6375 -83.6739 170° South 168 193 5,000  Level Cleveland Center
09:14PM 42.5900 -83.6631 170° South 163 188 5,100 -180 Climbing Cleveland Center
09:15PM 42.5383 -83.6436 165° South 176 203 4,700 -480 Descending Cleveland Center
09:16PM 42.4908 -83.6300 168° South 180 207 4,200 -540 Descending Cleveland Center
09:17PM 42.4556 -83.6197 168° South 162 186 3,800 -540 Descending Cleveland Center
09:18PM 42.4122 -83.5981 160° South 158 182 3,300 -600 Descending Cleveland Center
09:19PM 42.3733 -83.5794 161° South 156 180 2,700 -540 Descending Cleveland Center
09:20PM 42.3300 -83.5547 157° South 143 165 2,200 -480 Descending Cleveland Center
09:21PM 42.2992 -83.5367 157° South 131 151 1,800 -360 Descending Cleveland Center
09:22PM 42.2708 -83.5100 145° Southeast 130 150 1,600 -240 Descending Cleveland Center
09:24PM 42.2333 -83.5167 160° South  Level FlightAware Approximate
09:31PM 42.2393 -83.5310 160° South  Level Estimated
09:32PM 42.2393 -83.5310 160° South  Level Estimated